Flight Track Log - Related Links

Times and Time Zones

All times are in EDT time to prevent confusion due to time zone crossing. See the KAP444 flight status page for this flight to view local times or setup timezone preferences in your user account.

Time Position Orientation Groundspeed Altitude Reporting Facility
EDT Latitude Longitude Course Direction KTS MPH feet Rate Location/Type
Tue 07:27:50 AM 44.5369 -75.1922 150° Southeast 143 165 6,400  Level Boston Center
Tue 07:28:50 AM 44.5019 -75.1644 150° Southeast 143 165 7,200 550 Climbing Boston Center
Tue 07:29:50 AM 44.4631 -75.1394 155° Southeast 143 165 7,500 150 Climbing Boston Center
Tue 07:30:50 AM 44.4242 -75.1058 148° Southeast 155 178 7,500  Level Boston Center
Tue 07:31:50 AM 44.3833 -75.0778 154° Southeast 160 184 7,500  Level Boston Center
Tue 07:32:50 AM 44.3444 -75.0411 146° Southeast 160 184 7,500  Level Boston Center
Tue 07:33:51 AM 44.3014 -75.0075 151° Southeast 165 190 7,500  Level Boston Center
Tue 07:34:50 AM 44.2583 -74.9764 153° Southeast 171 197 7,500  Level Boston Center
Tue 07:35:51 AM 44.2175 -74.9458 152° Southeast 171 197 7,500  Level Boston Center
Tue 07:36:50 AM 44.1744 -74.9092 149° Southeast 171 197 7,500  Level Boston Center
Tue 07:37:51 AM 44.1333 -74.8786 152° Southeast 176 203 7,500  Level Boston Center
Tue 07:38:50 AM 44.0903 -74.8422 149° Southeast 176 203 7,500  Level Boston Center
Tue 07:39:50 AM 44.0514 -74.8089 148° Southeast 176 203 7,500  Level Boston Center
Tue 07:40:50 AM 44.0083 -74.7783 153° Southeast 176 203 7,500  Level Boston Center
Tue 07:41:50 AM 43.9672 -74.7450 150° Southeast 176 203 7,500  Level Boston Center
Tue 07:42:50 AM 43.9264 -74.7117 150° Southeast 176 203 7,500  Level Boston Center
Tue 07:43:50 AM 43.8831 -74.6811 153° Southeast 176 203 7,500  Level Boston Center
Tue 07:44:50 AM 43.8422 -74.6481 150° Southeast 176 203 7,500  Level Boston Center
Tue 07:45:50 AM 43.7989 -74.6119 149° Southeast 176 203 7,500  Level Boston Center
Tue 07:46:50 AM 43.7581 -74.5789 150° Southeast 176 203 7,500  Level Boston Center
Tue 07:47:50 AM 43.7147 -74.5486 153° Southeast 176 203 7,500  Level Boston Center
Tue 07:48:50 AM 43.6736 -74.5125 148° Southeast 176 203 7,500  Level Boston Center
Tue 07:49:50 AM 43.6325 -74.4825 152° Southeast 176 203 7,500  Level Boston Center
Tue 07:50:50 AM 43.5875 -74.4467 150° Southeast 176 203 7,500  Level Boston Center
Tue 07:51:50 AM 43.5464 -74.4136 150° Southeast 176 203 7,500  Level Boston Center
Tue 07:52:50 AM 43.5031 -74.3808 151° Southeast 176 203 7,500  Level Boston Center
Tue 07:53:50 AM 43.4597 -74.3481 151° Southeast 181 208 7,500  Level Boston Center
Tue 07:54:17 AM 43.4392 -74.3358 157° South 176 203 7,500  Level Boston Center
Tue 07:54:50 AM 43.4186 -74.3153 144° Southeast 181 208 7,500  Level Boston Center
Tue 07:55:12 AM 43.4022 -74.3033 152° Southeast 175 201 7,500  Level Boston Center
Tue 07:55:50 AM 43.3756 -74.2797 147° Southeast 181 208 7,500  Level Boston Center
Tue 07:56:13 AM 43.3589 -74.2706 158° South 174 200 7,500  Level Boston Center
Tue 07:56:50 AM 43.3425 -74.2558 147° Southeast 181 208 7,500  Level Boston Center
Tue 07:57:07 AM 43.3219 -74.2408 152° Southeast 174 200 7,500  Level Boston Center
Tue 07:57:50 AM 43.2994 -74.2203 146° Southeast 181 208 7,500 -98 Level Boston Center
Tue 07:58:08 AM 43.2808 -74.2083 155° Southeast 172 198 7,400 -300 Descending Boston Center
Tue 07:58:50 AM 43.2583 -74.1819 139° Southeast 175 201 7,200 -300 Descending Boston Center
Tue 07:59:08 AM 43.2419 -74.1672 147° Southeast 174 200 7,100 -500 Descending Boston Center
Tue 07:59:50 AM 43.2153 -74.1325 136° Southeast 175 201 6,700 -590 Descending Boston Center
Tue 08:00:09 AM 43.2028 -74.1233 152° Southeast 181 208 6,500 -600 Descending Boston Center
Tue 08:00:50 AM 43.1761 -74.0972 144° Southeast 180 207 6,100 -689 Descending Boston Center
Tue 08:01:10 AM 43.1597 -74.0881 158° South 190 219 5,800 -700 Descending Boston Center
Tue 08:01:50 AM 43.1267 -74.0589 147° Southeast 191 220 5,400 -600 Descending Boston Center
Tue 08:02:10 AM 43.1142 -74.0528 160° South 188 216 5,200 -600 Descending Boston Center
Tue 08:02:50 AM 43.0856 -74.0264 146° Southeast 191 220 4,800 -655 Descending Boston Center
Tue 08:03:05 AM 43.0731 -74.0203 160° South 186 214 4,600 -800 Descending Boston Center
Tue 08:03:50 AM 43.0358 -73.9883 148° Southeast 185 213 4,000 -800 Descending Boston Center
Tue 08:04:05 AM 43.0256 -73.9794 148° Southeast 191 220 3,800 -700 Descending Boston Center
Tue 08:04:50 AM 42.9947 -73.9531 148° Southeast 185 213 3,300 -689 Descending Boston Center
Tue 08:05:06 AM 42.9803 -73.9414 149° Southeast 198 228 3,100 -600 Descending Boston Center
Tue 08:05:50 AM 42.9453 -73.9064 144° Southeast 185 213 2,700 -537 Descending Boston Center
Tue 08:06:13 AM 42.9308 -73.8919 144° Southeast 187 215 2,500 -500 Descending Boston Center
Tue 08:06:50 AM 42.9103 -73.8717 144° Southeast 191 220 2,200 -600 Descending Boston Center
Tue 08:07:13 AM 42.8897 -73.8542 148° Southeast 183 211 1,900 -400 Descending Boston Center
Tue 08:07:50 AM 42.8692 -73.8394 152° Southeast 191 220 1,800 -98 Descending Boston Center
Tue 08:08:14 AM 42.8464 -73.8219 151° Southeast 175 201 1,800 2,200 Level Boston Center
Tue 08:08:50 AM 42.8533 -73.7600 81° East 162 186 4,000 -492 Climbing Boston Center
Tue 08:09:15 AM 42.8069 -73.8097 218° Southwest 142 163 1,300 -2,506 Descending Boston Center
Tue 08:10:09 AM 42.7756 -73.8064 176° South 102 117 700 -667 Descending Boston Center
Tue 08:12:00 AM 42.7491 -73.8020 160° South  Level Estimated
Tue 08:19:00 AM 42.7491 -73.8020 160° South  Level Estimated
Tue 08:20:00 AM 42.7491 -73.8020 160° South  Level Estimated
Tue 08:21:00 AM 42.7491 -73.8020 160° South  Level Estimated

Login

Don't have an account? Register now (free) for customized features, flight alerts, and more!